sensor_id;sensor_type;location;lat;lon;timestamp;temperature;humidity
25188;DHT22;13141;50.414;8.050;2023-04-03T00:01:56;6.10;99.90
25188;DHT22;13141;50.414;8.050;2023-04-03T00:04:22;6.10;99.90
25188;DHT22;13141;50.414;8.050;2023-04-03T00:06:49;6.10;99.90
25188;DHT22;13141;50.414;8.050;2023-04-03T00:09:14;6.10;99.90
25188;DHT22;13141;50.414;8.050;2023-04-03T00:11:40;6.30;99.90
25188;DHT22;13141;50.414;8.050;2023-04-03T00:14:06;6.10;99.90
25188;DHT22;13141;50.414;8.050;2023-04-03T00:16:32;6.10;99.90
25188;DHT22;13141;50.414;8.050;2023-04-03T00:18:57;6.20;99.90
25188;DHT22;13141;50.414;8.050;2023-04-03T00:21:23;6.20;99.90
25188;DHT22;13141;50.414;8.050;2023-04-03T00:23:50;6.10;99.90
25188;DHT22;13141;50.414;8.050;2023-04-03T00:26:16;6.10;99.90
25188;DHT22;13141;50.414;8.050;2023-04-03T00:28:41;5.70;99.90
25188;DHT22;13141;50.414;8.050;2023-04-03T00:31:07;6.00;99.90
25188;DHT22;13141;50.414;8.050;2023-04-03T00:33:33;6.10;99.90
25188;DHT22;13141;50.414;8.050;2023-04-03T00:35:59;6.10;99.90
25188;DHT22;13141;50.414;8.050;2023-04-03T00:38:24;6.10;99.90
25188;DHT22;13141;50.414;8.050;2023-04-03T00:40:51;5.50;99.90
25188;DHT22;13141;50.414;8.050;2023-04-03T00:43:19;6.00;99.90
25188;DHT22;13141;50.414;8.050;2023-04-03T00:45:46;6.00;99.90
25188;DHT22;13141;50.414;8.050;2023-04-03T00:48:16;5.60;99.90
25188;DHT22;13141;50.414;8.050;2023-04-03T00:50:43;6.00;99.90
25188;DHT22;13141;50.414;8.050;2023-04-03T00:53:12;6.10;99.90
25188;DHT22;13141;50.414;8.050;2023-04-03T00:55:39;6.00;99.90
25188;DHT22;13141;50.414;8.050;2023-04-03T00:58:06;6.10;99.90
25188;DHT22;13141;50.414;8.050;2023-04-03T01:00:34;6.10;99.90
25188;DHT22;13141;50.414;8.050;2023-04-03T01:03:01;6.10;99.90
25188;DHT22;13141;50.414;8.050;2023-04-03T01:05:26;6.20;99.90
25188;DHT22;13141;50.414;8.050;2023-04-03T01:07:52;6.20;99.90
25188;DHT22;13141;50.414;8.050;2023-04-03T01:10:19;6.20;99.90
25188;DHT22;13141;50.414;8.050;2023-04-03T01:12:46;6.20;99.90
25188;DHT22;13141;50.414;8.050;2023-04-03T01:15:15;6.20;99.90
25188;DHT22;13141;50.414;8.050;2023-04-03T01:17:43;6.20;99.90
25188;DHT22;13141;50.414;8.050;2023-04-03T01:20:35;6.30;99.90
25188;DHT22;13141;50.414;8.050;2023-04-03T01:23:10;6.30;99.90
25188;DHT22;13141;50.414;8.050;2023-04-03T01:25:40;6.30;99.90
25188;DHT22;13141;50.414;8.050;2023-04-03T01:28:07;6.30;99.90
25188;DHT22;13141;50.414;8.050;2023-04-03T01:30:37;6.40;99.90
25188;DHT22;13141;50.414;8.050;2023-04-03T01:33:07;6.40;99.90
25188;DHT22;13141;50.414;8.050;2023-04-03T01:35:33;6.40;99.90
25188;DHT22;13141;50.414;8.050;2023-04-03T01:37:59;6.40;99.90
25188;DHT22;13141;50.414;8.050;2023-04-03T01:40:25;6.40;99.90
25188;DHT22;13141;50.414;8.050;2023-04-03T01:42:50;6.40;99.90
25188;DHT22;13141;50.414;8.050;2023-04-03T01:45:16;6.40;99.90
25188;DHT22;13141;50.414;8.050;2023-04-03T01:47:42;6.40;99.90
25188;DHT22;13141;50.414;8.050;2023-04-03T01:50:09;6.40;99.90
25188;DHT22;13141;50.414;8.050;2023-04-03T01:52:35;6.50;99.90
25188;DHT22;13141;50.414;8.050;2023-04-03T01:55:01;6.40;99.90
25188;DHT22;13141;50.414;8.050;2023-04-03T01:57:26;6.50;99.90
25188;DHT22;13141;50.414;8.050;2023-04-03T01:59:52;6.40;99.90
25188;DHT22;13141;50.414;8.050;2023-04-03T02:02:18;6.40;99.90
25188;DHT22;13141;50.414;8.050;2023-04-03T02:04:43;6.40;99.90
25188;DHT22;13141;50.414;8.050;2023-04-03T02:07:10;6.40;99.90
25188;DHT22;13141;50.414;8.050;2023-04-03T02:09:36;6.30;99.90
25188;DHT22;13141;50.414;8.050;2023-04-03T02:12:01;6.30;99.90
25188;DHT22;13141;50.414;8.050;2023-04-03T02:14:27;6.30;99.90
25188;DHT22;13141;50.414;8.050;2023-04-03T02:16:53;6.20;99.90
25188;DHT22;13141;50.414;8.050;2023-04-03T02:19:19;6.30;99.90
25188;DHT22;13141;50.414;8.050;2023-04-03T02:21:45;6.20;99.90
25188;DHT22;13141;50.414;8.050;2023-04-03T02:24:12;6.20;99.90
25188;DHT22;13141;50.414;8.050;2023-04-03T02:26:37;6.20;99.90
25188;DHT22;13141;50.414;8.050;2023-04-03T02:29:03;6.20;99.90
25188;DHT22;13141;50.414;8.050;2023-04-03T02:31:28;6.20;99.90
25188;DHT22;13141;50.414;8.050;2023-04-03T02:33:54;6.10;99.90
25188;DHT22;13141;50.414;8.050;2023-04-03T02:36:20;6.10;99.90
25188;DHT22;13141;50.414;8.050;2023-04-03T02:38:45;6.10;99.90
25188;DHT22;13141;50.414;8.050;2023-04-03T02:41:13;6.10;99.90
25188;DHT22;13141;50.414;8.050;2023-04-03T02:43:38;6.00;99.90
25188;DHT22;13141;50.414;8.050;2023-04-03T02:46:04;6.00;99.90
25188;DHT22;13141;50.414;8.050;2023-04-03T02:48:30;6.20;99.90
25188;DHT22;13141;50.414;8.050;2023-04-03T02:50:56;5.90;99.90
25188;DHT22;13141;50.414;8.050;2023-04-03T02:53:22;5.90;99.90
25188;DHT22;13141;50.414;8.050;2023-04-03T02:55:48;5.80;99.90
25188;DHT22;13141;50.414;8.050;2023-04-03T02:58:15;5.80;99.90
25188;DHT22;13141;50.414;8.050;2023-04-03T03:00:41;5.80;99.90
25188;DHT22;13141;50.414;8.050;2023-04-03T03:03:06;5.70;99.90
25188;DHT22;13141;50.414;8.050;2023-04-03T03:05:32;5.60;99.90
25188;DHT22;13141;50.414;8.050;2023-04-03T03:07:58;5.60;99.90
25188;DHT22;13141;50.414;8.050;2023-04-03T03:10:24;5.60;99.90
25188;DHT22;13141;50.414;8.050;2023-04-03T03:12:49;5.60;99.90
25188;DHT22;13141;50.414;8.050;2023-04-03T03:15:17;5.60;99.90
25188;DHT22;13141;50.414;8.050;2023-04-03T03:17:42;5.60;99.90
25188;DHT22;13141;50.414;8.050;2023-04-03T03:20:09;5.50;99.90
25188;DHT22;13141;50.414;8.050;2023-04-03T03:22:35;5.50;99.90
25188;DHT22;13141;50.414;8.050;2023-04-03T03:25:01;5.50;99.90
25188;DHT22;13141;50.414;8.050;2023-04-03T03:27:27;5.50;99.90
25188;DHT22;13141;50.414;8.050;2023-04-03T03:29:53;5.60;99.90
25188;DHT22;13141;50.414;8.050;2023-04-03T03:32:20;5.40;99.90
25188;DHT22;13141;50.414;8.050;2023-04-03T03:34:46;4.70;99.90
25188;DHT22;13141;50.414;8.050;2023-04-03T03:37:11;5.30;99.90
25188;DHT22;13141;50.414;8.050;2023-04-03T03:39:37;5.30;99.90
25188;DHT22;13141;50.414;8.050;2023-04-03T03:42:03;5.20;99.90
25188;DHT22;13141;50.414;8.050;2023-04-03T03:44:28;5.20;99.90
25188;DHT22;13141;50.414;8.050;2023-04-03T03:46:54;5.10;99.90
25188;DHT22;13141;50.414;8.050;2023-04-03T03:49:21;5.10;99.90
25188;DHT22;13141;50.414;8.050;2023-04-03T03:51:47;5.10;99.90
25188;DHT22;13141;50.414;8.050;2023-04-03T03:54:13;4.60;99.90
25188;DHT22;13141;50.414;8.050;2023-04-03T03:56:38;5.10;99.90
25188;DHT22;13141;50.414;8.050;2023-04-03T03:59:04;5.00;99.90
25188;DHT22;13141;50.414;8.050;2023-04-03T04:01:30;5.00;99.90
25188;DHT22;13141;50.414;8.050;2023-04-03T04:03:55;4.90;99.90
25188;DHT22;13141;50.414;8.050;2023-04-03T04:06:23;4.90;99.90
25188;DHT22;13141;50.414;8.050;2023-04-03T04:08:48;4.80;99.90
25188;DHT22;13141;50.414;8.050;2023-04-03T04:11:14;4.80;99.90
25188;DHT22;13141;50.414;8.050;2023-04-03T04:13:40;4.70;99.90
25188;DHT22;13141;50.414;8.050;2023-04-03T04:16:06;4.70;99.90
25188;DHT22;13141;50.414;8.050;2023-04-03T04:18:32;4.70;99.90
25188;DHT22;13141;50.414;8.050;2023-04-03T04:20:58;4.60;99.90
25188;DHT22;13141;50.414;8.050;2023-04-03T04:23:25;4.60;99.90
25188;DHT22;13141;50.414;8.050;2023-04-03T04:25:51;4.60;99.90
25188;DHT22;13141;50.414;8.050;2023-04-03T04:28:17;4.60;99.90
25188;DHT22;13141;50.414;8.050;2023-04-03T04:30:43;4.50;99.90
25188;DHT22;13141;50.414;8.050;2023-04-03T04:33:11;4.50;99.90
25188;DHT22;13141;50.414;8.050;2023-04-03T04:35:37;4.50;99.90
25188;DHT22;13141;50.414;8.050;2023-04-03T04:38:03;4.40;99.90
25188;DHT22;13141;50.414;8.050;2023-04-03T04:40:30;4.40;99.90
25188;DHT22;13141;50.414;8.050;2023-04-03T04:42:56;4.30;99.90
25188;DHT22;13141;50.414;8.050;2023-04-03T04:45:22;4.30;99.90
25188;DHT22;13141;50.414;8.050;2023-04-03T04:47:47;4.30;99.90
25188;DHT22;13141;50.414;8.050;2023-04-03T04:50:13;4.30;99.90
25188;DHT22;13141;50.414;8.050;2023-04-03T04:52:39;4.30;99.90
25188;DHT22;13141;50.414;8.050;2023-04-03T04:55:06;4.30;99.90
25188;DHT22;13141;50.414;8.050;2023-04-03T04:57:33;4.30;99.90
25188;DHT22;13141;50.414;8.050;2023-04-03T04:59:59;4.20;99.90
25188;DHT22;13141;50.414;8.050;2023-04-03T05:02:25;4.20;99.90
25188;DHT22;13141;50.414;8.050;2023-04-03T05:04:50;4.20;99.90
25188;DHT22;13141;50.414;8.050;2023-04-03T05:07:16;4.10;99.90
25188;DHT22;13141;50.414;8.050;2023-04-03T05:09:42;4.10;99.90
25188;DHT22;13141;50.414;8.050;2023-04-03T05:12:07;4.10;99.90
25188;DHT22;13141;50.414;8.050;2023-04-03T05:14:34;4.00;99.90
25188;DHT22;13141;50.414;8.050;2023-04-03T05:17:00;4.10;99.90
25188;DHT22;13141;50.414;8.050;2023-04-03T05:19:26;4.10;99.90
25188;DHT22;13141;50.414;8.050;2023-04-03T05:21:52;4.10;99.90
25188;DHT22;13141;50.414;8.050;2023-04-03T05:24:17;4.10;99.90
25188;DHT22;13141;50.414;8.050;2023-04-03T05:26:43;4.10;99.90
25188;DHT22;13141;50.414;8.050;2023-04-03T05:29:09;4.00;99.90
25188;DHT22;13141;50.414;8.050;2023-04-03T05:31:36;4.00;99.90
25188;DHT22;13141;50.414;8.050;2023-04-03T05:34:02;4.00;99.90
25188;DHT22;13141;50.414;8.050;2023-04-03T05:36:28;4.00;99.90
25188;DHT22;13141;50.414;8.050;2023-04-03T05:38:53;4.00;99.90
25188;DHT22;13141;50.414;8.050;2023-04-03T05:41:19;4.00;99.90
25188;DHT22;13141;50.414;8.050;2023-04-03T05:43:45;4.00;99.90
25188;DHT22;13141;50.414;8.050;2023-04-03T05:46:11;4.00;99.90
25188;DHT22;13141;50.414;8.050;2023-04-03T05:48:38;4.00;99.90
25188;DHT22;13141;50.414;8.050;2023-04-03T05:51:05;4.10;99.90
25188;DHT22;13141;50.414;8.050;2023-04-03T05:53:34;4.10;99.90
25188;DHT22;13141;50.414;8.050;2023-04-03T05:56:00;4.30;99.90
25188;DHT22;13141;50.414;8.050;2023-04-03T05:58:26;4.00;99.90
25188;DHT22;13141;50.414;8.050;2023-04-03T06:00:52;4.00;99.90
25188;DHT22;13141;50.414;8.050;2023-04-03T06:03:17;4.00;99.90
25188;DHT22;13141;50.414;8.050;2023-04-03T06:05:44;4.00;99.90
25188;DHT22;13141;50.414;8.050;2023-04-03T06:08:10;4.00;99.90
25188;DHT22;13141;50.414;8.050;2023-04-03T06:10:36;4.10;99.90
25188;DHT22;13141;50.414;8.050;2023-04-03T06:13:02;4.00;99.90
25188;DHT22;13141;50.414;8.050;2023-04-03T06:15:27;4.00;99.90
25188;DHT22;13141;50.414;8.050;2023-04-03T06:17:53;4.00;99.90
25188;DHT22;13141;50.414;8.050;2023-04-03T06:20:19;4.10;99.90
25188;DHT22;13141;50.414;8.050;2023-04-03T06:22:46;4.10;99.90
25188;DHT22;13141;50.414;8.050;2023-04-03T06:25:12;4.10;99.90
25188;DHT22;13141;50.414;8.050;2023-04-03T06:27:38;4.10;99.90
25188;DHT22;13141;50.414;8.050;2023-04-03T06:30:05;4.10;99.90
25188;DHT22;13141;50.414;8.050;2023-04-03T06:32:31;4.10;99.90
25188;DHT22;13141;50.414;8.050;2023-04-03T06:34:56;4.20;99.90
25188;DHT22;13141;50.414;8.050;2023-04-03T06:37:22;4.20;99.90
25188;DHT22;13141;50.414;8.050;2023-04-03T06:39:50;4.20;99.90
25188;DHT22;13141;50.414;8.050;2023-04-03T06:42:15;4.20;99.90
25188;DHT22;13141;50.414;8.050;2023-04-03T06:44:41;4.30;99.90
25188;DHT22;13141;50.414;8.050;2023-04-03T06:47:08;4.30;99.90
25188;DHT22;13141;50.414;8.050;2023-04-03T06:49:34;4.30;99.90
25188;DHT22;13141;50.414;8.050;2023-04-03T06:52:00;4.40;99.90
25188;DHT22;13141;50.414;8.050;2023-04-03T06:54:26;4.40;99.90
25188;DHT22;13141;50.414;8.050;2023-04-03T06:56:53;4.40;99.90
25188;DHT22;13141;50.414;8.050;2023-04-03T06:59:19;4.50;99.90
25188;DHT22;13141;50.414;8.050;2023-04-03T07:01:44;4.50;99.90
25188;DHT22;13141;50.414;8.050;2023-04-03T07:04:10;4.50;99.90
25188;DHT22;13141;50.414;8.050;2023-04-03T07:06:36;4.50;99.90
25188;DHT22;13141;50.414;8.050;2023-04-03T07:09:02;4.60;99.90
25188;DHT22;13141;50.414;8.050;2023-04-03T07:11:28;4.60;99.90
25188;DHT22;13141;50.414;8.050;2023-04-03T07:13:55;4.60;99.90
25188;DHT22;13141;50.414;8.050;2023-04-03T07:16:20;4.60;99.90
25188;DHT22;13141;50.414;8.050;2023-04-03T07:18:46;4.60;99.90
25188;DHT22;13141;50.414;8.050;2023-04-03T07:21:12;4.60;99.90
25188;DHT22;13141;50.414;8.050;2023-04-03T07:23:38;4.60;99.90
25188;DHT22;13141;50.414;8.050;2023-04-03T07:26:03;4.70;99.90
25188;DHT22;13141;50.414;8.050;2023-04-03T07:28:29;4.70;99.90
25188;DHT22;13141;50.414;8.050;2023-04-03T07:31:00;4.80;99.90
25188;DHT22;13141;50.414;8.050;2023-04-03T07:33:26;4.80;99.90
25188;DHT22;13141;50.414;8.050;2023-04-03T07:35:52;4.90;99.90
25188;DHT22;13141;50.414;8.050;2023-04-03T07:38:18;4.90;99.90
25188;DHT22;13141;50.414;8.050;2023-04-03T07:40:46;5.00;99.90
25188;DHT22;13141;50.414;8.050;2023-04-03T07:43:12;4.90;99.90
25188;DHT22;13141;50.414;8.050;2023-04-03T07:45:38;5.00;99.90
25188;DHT22;13141;50.414;8.050;2023-04-03T07:48:05;5.00;99.90
25188;DHT22;13141;50.414;8.050;2023-04-03T07:50:31;5.10;99.90
25188;DHT22;13141;50.414;8.050;2023-04-03T07:52:56;5.10;99.90
25188;DHT22;13141;50.414;8.050;2023-04-03T07:55:22;5.20;99.90
25188;DHT22;13141;50.414;8.050;2023-04-03T07:57:48;5.30;99.90
25188;DHT22;13141;50.414;8.050;2023-04-03T08:00:14;5.40;99.90
25188;DHT22;13141;50.414;8.050;2023-04-03T08:02:40;5.50;99.90
25188;DHT22;13141;50.414;8.050;2023-04-03T08:05:08;5.70;99.90
25188;DHT22;13141;50.414;8.050;2023-04-03T08:07:34;5.90;99.90
25188;DHT22;13141;50.414;8.050;2023-04-03T08:10:01;6.00;99.90
25188;DHT22;13141;50.414;8.050;2023-04-03T08:12:27;6.30;99.90
25188;DHT22;13141;50.414;8.050;2023-04-03T08:14:53;6.40;99.90
25188;DHT22;13141;50.414;8.050;2023-04-03T08:17:18;6.60;99.90
25188;DHT22;13141;50.414;8.050;2023-04-03T08:19:44;6.80;99.90
25188;DHT22;13141;50.414;8.050;2023-04-03T08:22:12;7.00;99.90
25188;DHT22;13141;50.414;8.050;2023-04-03T08:24:38;7.10;99.90
25188;DHT22;13141;50.414;8.050;2023-04-03T08:27:04;7.30;99.90
25188;DHT22;13141;50.414;8.050;2023-04-03T08:29:29;7.50;99.90
25188;DHT22;13141;50.414;8.050;2023-04-03T08:31:55;7.60;99.90
25188;DHT22;13141;50.414;8.050;2023-04-03T08:34:21;7.80;99.90
25188;DHT22;13141;50.414;8.050;2023-04-03T08:36:47;8.00;99.90
25188;DHT22;13141;50.414;8.050;2023-04-03T08:39:14;8.30;99.90
25188;DHT22;13141;50.414;8.050;2023-04-03T08:41:41;8.60;99.90
25188;DHT22;13141;50.414;8.050;2023-04-03T08:44:17;8.60;99.40
25188;DHT22;13141;50.414;8.050;2023-04-03T08:47:01;8.70;99.00
25188;DHT22;13141;50.414;8.050;2023-04-03T08:49:31;8.80;98.40
25188;DHT22;13141;50.414;8.050;2023-04-03T08:51:59;9.00;99.50
25188;DHT22;13141;50.414;8.050;2023-04-03T08:54:32;9.30;98.90
25188;DHT22;13141;50.414;8.050;2023-04-03T08:57:02;9.70;99.00
25188;DHT22;13141;50.414;8.050;2023-04-03T08:59:32;9.80;99.20
25188;DHT22;13141;50.414;8.050;2023-04-03T09:02:01;9.90;97.40
25188;DHT22;13141;50.414;8.050;2023-04-03T09:04:31;10.10;97.00
25188;DHT22;13141;50.414;8.050;2023-04-03T09:07:00;10.40;97.10
25188;DHT22;13141;50.414;8.050;2023-04-03T09:09:33;10.70;97.30
25188;DHT22;13141;50.414;8.050;2023-04-03T09:12:11;10.90;96.10
25188;DHT22;13141;50.414;8.050;2023-04-03T09:14:39;11.00;96.80
25188;DHT22;13141;50.414;8.050;2023-04-03T09:17:14;11.40;96.90
25188;DHT22;13141;50.414;8.050;2023-04-03T09:19:46;11.70;96.90
25188;DHT22;13141;50.414;8.050;2023-04-03T09:22:18;11.80;93.90
25188;DHT22;13141;50.414;8.050;2023-04-03T09:24:51;11.70;93.70
25188;DHT22;13141;50.414;8.050;2023-04-03T09:27:18;11.80;93.60
25188;DHT22;13141;50.414;8.050;2023-04-03T09:29:44;12.00;93.40
25188;DHT22;13141;50.414;8.050;2023-04-03T09:32:21;12.10;93.60
25188;DHT22;13141;50.414;8.050;2023-04-03T09:34:47;12.40;93.20
25188;DHT22;13141;50.414;8.050;2023-04-03T09:37:34;12.60;94.00
25188;DHT22;13141;50.414;8.050;2023-04-03T09:40:03;12.60;91.10
25188;DHT22;13141;50.414;8.050;2023-04-03T09:42:30;12.70;92.20
25188;DHT22;13141;50.414;8.050;2023-04-03T09:44:58;12.70;91.40
25188;DHT22;13141;50.414;8.050;2023-04-03T09:47:25;12.50;90.10
25188;DHT22;13141;50.414;8.050;2023-04-03T09:49:52;12.50;90.90
25188;DHT22;13141;50.414;8.050;2023-04-03T09:52:33;12.60;91.60
25188;DHT22;13141;50.414;8.050;2023-04-03T09:55:07;12.80;90.60
25188;DHT22;13141;50.414;8.050;2023-04-03T09:57:33;13.10;90.60
25188;DHT22;13141;50.414;8.050;2023-04-03T10:00:00;13.20;90.50
25188;DHT22;13141;50.414;8.050;2023-04-03T10:02:35;13.40;92.40
25188;DHT22;13141;50.414;8.050;2023-04-03T10:05:03;13.20;92.20
25188;DHT22;13141;50.414;8.050;2023-04-03T10:07:32;13.10;91.40
25188;DHT22;13141;50.414;8.050;2023-04-03T10:09:59;13.20;91.30
25188;DHT22;13141;50.414;8.050;2023-04-03T10:12:27;13.30;91.60
25188;DHT22;13141;50.414;8.050;2023-04-03T10:14:57;13.60;90.00
25188;DHT22;13141;50.414;8.050;2023-04-03T10:17:30;13.80;91.60
25188;DHT22;13141;50.414;8.050;2023-04-03T10:20:02;14.20;90.40
25188;DHT22;13141;50.414;8.050;2023-04-03T10:22:37;14.20;87.60
25188;DHT22;13141;50.414;8.050;2023-04-03T10:25:12;14.20;84.70
25188;DHT22;13141;50.414;8.050;2023-04-03T10:27:49;14.10;87.90
25188;DHT22;13141;50.414;8.050;2023-04-03T10:30:27;14.10;86.00
25188;DHT22;13141;50.414;8.050;2023-04-03T10:33:01;14.10;83.50
25188;DHT22;13141;50.414;8.050;2023-04-03T10:35:39;13.90;83.00
25188;DHT22;13141;50.414;8.050;2023-04-03T10:38:14;13.90;86.00
25188;DHT22;13141;50.414;8.050;2023-04-03T10:40:46;14.00;86.30
25188;DHT22;13141;50.414;8.050;2023-04-03T10:43:20;14.40;84.20
25188;DHT22;13141;50.414;8.050;2023-04-03T10:45:53;14.50;85.00
25188;DHT22;13141;50.414;8.050;2023-04-03T10:48:31;14.80;84.00
25188;DHT22;13141;50.414;8.050;2023-04-03T10:51:05;14.60;80.70
25188;DHT22;13141;50.414;8.050;2023-04-03T10:53:40;14.80;80.60
25188;DHT22;13141;50.414;8.050;2023-04-03T10:56:13;15.00;83.60
25188;DHT22;13141;50.414;8.050;2023-04-03T10:58:44;15.00;79.40
25188;DHT22;13141;50.414;8.050;2023-04-03T11:01:15;15.20;77.90
25188;DHT22;13141;50.414;8.050;2023-04-03T11:03:44;15.40;78.20
25188;DHT22;13141;50.414;8.050;2023-04-03T11:06:11;15.60;80.40
25188;DHT22;13141;50.414;8.050;2023-04-03T11:08:42;15.90;83.10
25188;DHT22;13141;50.414;8.050;2023-04-03T11:11:15;15.80;73.30
25188;DHT22;13141;50.414;8.050;2023-04-03T11:13:45;15.80;73.20
25188;DHT22;13141;50.414;8.050;2023-04-03T11:16:15;15.90;69.60
25188;DHT22;13141;50.414;8.050;2023-04-03T11:18:46;15.80;71.40
25188;DHT22;13141;50.414;8.050;2023-04-03T11:21:19;16.30;69.90
25188;DHT22;13141;50.414;8.050;2023-04-03T11:23:45;16.30;67.60
25188;DHT22;13141;50.414;8.050;2023-04-03T11:26:14;16.30;65.00
25188;DHT22;13141;50.414;8.050;2023-04-03T11:28:41;16.20;65.80
25188;DHT22;13141;50.414;8.050;2023-04-03T11:31:22;16.00;65.80
25188;DHT22;13141;50.414;8.050;2023-04-03T11:34:08;16.10;66.40
25188;DHT22;13141;50.414;8.050;2023-04-03T11:36:41;16.20;66.70
25188;DHT22;13141;50.414;8.050;2023-04-03T11:39:18;16.50;67.60
25188;DHT22;13141;50.414;8.050;2023-04-03T11:41:45;16.80;66.70
25188;DHT22;13141;50.414;8.050;2023-04-03T11:44:29;17.10;70.80
25188;DHT22;13141;50.414;8.050;2023-04-03T11:46:58;17.20;66.30
25188;DHT22;13141;50.414;8.050;2023-04-03T11:49:56;17.00;63.60
25188;DHT22;13141;50.414;8.050;2023-04-03T11:53:00;17.20;64.40
25188;DHT22;13141;50.414;8.050;2023-04-03T11:55:54;17.60;66.20
25188;DHT22;13141;50.414;8.050;2023-04-03T11:58:20;17.70;63.70
25188;DHT22;13141;50.414;8.050;2023-04-03T12:00:48;18.00;67.50
25188;DHT22;13141;50.414;8.050;2023-04-03T12:09:56;17.90;61.70
25188;DHT22;13141;50.414;8.050;2023-04-03T12:12:36;17.70;58.50
25188;DHT22;13141;50.414;8.050;2023-04-03T12:15:20;17.30;62.20
25188;DHT22;13141;50.414;8.050;2023-04-03T12:17:46;17.40;60.00
25188;DHT22;13141;50.414;8.050;2023-04-03T12:20:51;17.40;58.70
25188;DHT22;13141;50.414;8.050;2023-04-03T12:23:25;17.20;57.90
25188;DHT22;13141;50.414;8.050;2023-04-03T12:25:51;17.50;59.00
25188;DHT22;13141;50.414;8.050;2023-04-03T12:28:17;17.90;58.30
25188;DHT22;13141;50.414;8.050;2023-04-03T12:30:43;18.10;58.20
25188;DHT22;13141;50.414;8.050;2023-04-03T12:33:27;18.50;56.70
25188;DHT22;13141;50.414;8.050;2023-04-03T12:36:06;18.60;57.60
25188;DHT22;13141;50.414;8.050;2023-04-03T12:39:01;18.60;57.50
25188;DHT22;13141;50.414;8.050;2023-04-03T12:41:36;18.30;58.50
25188;DHT22;13141;50.414;8.050;2023-04-03T12:44:27;18.50;58.60
25188;DHT22;13141;50.414;8.050;2023-04-03T12:47:00;18.70;60.00
25188;DHT22;13141;50.414;8.050;2023-04-03T12:49:38;18.30;58.80
25188;DHT22;13141;50.414;8.050;2023-04-03T12:52:18;18.80;56.80
25188;DHT22;13141;50.414;8.050;2023-04-03T12:54:46;18.80;57.70
25188;DHT22;13141;50.414;8.050;2023-04-03T12:57:15;18.80;53.90
25188;DHT22;13141;50.414;8.050;2023-04-03T12:59:41;19.00;56.80
25188;DHT22;13141;50.414;8.050;2023-04-03T13:02:20;18.80;51.60
25188;DHT22;13141;50.414;8.050;2023-04-03T13:04:46;18.80;52.80
25188;DHT22;13141;50.414;8.050;2023-04-03T13:07:24;18.80;52.50
25188;DHT22;13141;50.414;8.050;2023-04-03T13:09:59;18.80;52.20
25188;DHT22;13141;50.414;8.050;2023-04-03T13:12:24;18.80;53.00
25188;DHT22;13141;50.414;8.050;2023-04-03T13:14:55;18.70;52.80
25188;DHT22;13141;50.414;8.050;2023-04-03T13:17:24;18.80;53.30
25188;DHT22;13141;50.414;8.050;2023-04-03T13:19:50;19.10;52.30
25188;DHT22;13141;50.414;8.050;2023-04-03T13:22:26;19.40;51.50
25188;DHT22;13141;50.414;8.050;2023-04-03T13:24:54;19.50;52.90
25188;DHT22;13141;50.414;8.050;2023-04-03T13:27:21;19.40;51.90
25188;DHT22;13141;50.414;8.050;2023-04-03T13:29:50;19.30;47.90
25188;DHT22;13141;50.414;8.050;2023-04-03T13:32:19;19.40;52.50
25188;DHT22;13141;50.414;8.050;2023-04-03T13:34:45;19.70;52.00
25188;DHT22;13141;50.414;8.050;2023-04-03T13:37:21;19.70;53.00
25188;DHT22;13141;50.414;8.050;2023-04-03T13:39:58;19.70;51.20
25188;DHT22;13141;50.414;8.050;2023-04-03T13:42:26;19.70;51.70
25188;DHT22;13141;50.414;8.050;2023-04-03T13:45:11;19.80;51.60
25188;DHT22;13141;50.414;8.050;2023-04-03T13:47:42;19.90;49.10
25188;DHT22;13141;50.414;8.050;2023-04-03T13:50:17;20.10;50.50
25188;DHT22;13141;50.414;8.050;2023-04-03T13:52:52;20.20;49.70
25188;DHT22;13141;50.414;8.050;2023-04-03T13:55:21;20.20;52.20
25188;DHT22;13141;50.414;8.050;2023-04-03T13:57:56;20.00;48.60
25188;DHT22;13141;50.414;8.050;2023-04-03T14:00:32;19.70;46.70
25188;DHT22;13141;50.414;8.050;2023-04-03T14:02:58;19.60;49.80
25188;DHT22;13141;50.414;8.050;2023-04-03T14:05:24;19.60;49.80
25188;DHT22;13141;50.414;8.050;2023-04-03T14:07:52;19.80;50.80
25188;DHT22;13141;50.414;8.050;2023-04-03T14:10:19;19.80;48.40
25188;DHT22;13141;50.414;8.050;2023-04-03T14:12:45;19.90;51.00
25188;DHT22;13141;50.414;8.050;2023-04-03T14:15:16;19.80;48.00
25188;DHT22;13141;50.414;8.050;2023-04-03T14:17:43;19.90;47.50
25188;DHT22;13141;50.414;8.050;2023-04-03T14:20:14;19.80;48.00
25188;DHT22;13141;50.414;8.050;2023-04-03T14:22:40;19.60;48.70
25188;DHT22;13141;50.414;8.050;2023-04-03T14:25:07;19.60;47.60
25188;DHT22;13141;50.414;8.050;2023-04-03T14:27:36;19.80;49.20
25188;DHT22;13141;50.414;8.050;2023-04-03T14:30:03;19.90;50.60
25188;DHT22;13141;50.414;8.050;2023-04-03T14:32:29;19.90;50.50
25188;DHT22;13141;50.414;8.050;2023-04-03T14:34:55;20.00;50.90
25188;DHT22;13141;50.414;8.050;2023-04-03T14:37:23;20.10;49.80
25188;DHT22;13141;50.414;8.050;2023-04-03T14:39:51;20.20;48.50
25188;DHT22;13141;50.414;8.050;2023-04-03T14:42:19;20.20;49.30
25188;DHT22;13141;50.414;8.050;2023-04-03T14:44:45;20.10;47.50
25188;DHT22;13141;50.414;8.050;2023-04-03T14:47:12;19.90;45.50
25188;DHT22;13141;50.414;8.050;2023-04-03T14:49:38;19.80;47.60
25188;DHT22;13141;50.414;8.050;2023-04-03T14:52:04;19.80;46.80
25188;DHT22;13141;50.414;8.050;2023-04-03T14:54:30;19.60;46.30
25188;DHT22;13141;50.414;8.050;2023-04-03T14:56:57;19.80;49.30
25188;DHT22;13141;50.414;8.050;2023-04-03T14:59:25;19.80;48.30
25188;DHT22;13141;50.414;8.050;2023-04-03T15:01:51;19.60;45.50
25188;DHT22;13141;50.414;8.050;2023-04-03T15:04:19;19.50;46.10
25188;DHT22;13141;50.414;8.050;2023-04-03T15:06:46;19.60;47.30
25188;DHT22;13141;50.414;8.050;2023-04-03T15:09:19;19.40;48.10
25188;DHT22;13141;50.414;8.050;2023-04-03T15:11:45;19.20;45.40
25188;DHT22;13141;50.414;8.050;2023-04-03T15:14:10;19.20;47.70
25188;DHT22;13141;50.414;8.050;2023-04-03T15:16:37;19.30;47.70
25188;DHT22;13141;50.414;8.050;2023-04-03T15:19:03;19.20;45.70
25188;DHT22;13141;50.414;8.050;2023-04-03T15:21:29;19.00;45.20
25188;DHT22;13141;50.414;8.050;2023-04-03T15:23:54;18.90;47.00
25188;DHT22;13141;50.414;8.050;2023-04-03T15:26:20;18.70;47.00
25188;DHT22;13141;50.414;8.050;2023-04-03T15:28:46;18.70;48.00
25188;DHT22;13141;50.414;8.050;2023-04-03T15:31:11;18.70;49.10
25188;DHT22;13141;50.414;8.050;2023-04-03T15:33:39;18.60;48.20
25188;DHT22;13141;50.414;8.050;2023-04-03T15:36:05;18.60;46.90
25188;DHT22;13141;50.414;8.050;2023-04-03T15:38:30;18.40;46.50
25188;DHT22;13141;50.414;8.050;2023-04-03T15:40:56;18.20;46.80
25188;DHT22;13141;50.414;8.050;2023-04-03T15:43:22;18.10;47.00
25188;DHT22;13141;50.414;8.050;2023-04-03T15:45:48;18.20;47.60
25188;DHT22;13141;50.414;8.050;2023-04-03T15:48:14;18.10;46.50
25188;DHT22;13141;50.414;8.050;2023-04-03T15:50:41;18.00;46.20
25188;DHT22;13141;50.414;8.050;2023-04-03T15:53:07;17.90;46.20
25188;DHT22;13141;50.414;8.050;2023-04-03T15:55:34;17.70;45.60